KPGD/PGD METAR and TAF weather

Enter ICAO airport designator
Station Type Date Time Source
KPGD METAR 2020/09/30 13:53 UTC NOAA

KPGD 301353Z 03012KT 10SM BKN020 21/18 A3003 RMK AO2 SLP168 T02110183


Station Type Date Time Source
KPGD Decoded METAR 2020/09/30 13:53 UTC NOAA

PUNTA GORDA CHARLOTTE COUNTY, FL, United States (KPGD) 26-55N 82-00W 7M
Sep 30, 2020 - 09:53 AM EDT / 2020.09.30 1353 UTC
Wind: from the NNE (030 degrees) at 14 MPH (12 KT):0
Visibility: 10 mile(s):0
Sky conditions: mostly cloudy
Temperature: 70.0 F (21.1 C)
Dew Point: 64.9 F (18.3 C)
Relative Humidity: 84%
Pressure (altimeter): 30.03 in. Hg (1016 hPa)
ob: KPGD 301353Z 03012KT 10SM BKN020 21/18 A3003 RMK AO2 SLP168 T02110183
cycle: 14

Station Type Date Time Source
KPGD TAF 2020/09/30 12:39 UTC NOAA

TAF KPGD 301137Z 3012/0112 01009KT P6SM SCT017 BKN080
TEMPO 3012/3015 BKN017
FM010900 03006KT P6SM SCT030 BKN060

Example: see airport list